createdAt,value
2023-03-21T00:00:56.718Z,2.83
2023-03-21T00:04:06.817Z,2.60
2023-03-21T00:07:15.011Z,2.10
2023-03-21T00:10:37.066Z,1.20
2023-03-21T00:13:47.506Z,1.30
2023-03-21T00:16:55.734Z,1.13
2023-03-21T00:20:08.172Z,1.60
2023-03-21T00:23:16.448Z,1.70
2023-03-21T00:26:24.595Z,1.53
2023-03-21T00:29:32.737Z,1.10
2023-03-21T00:32:53.288Z,1.63
2023-03-21T00:36:06.949Z,2.07
2023-03-21T00:39:15.351Z,2.23
2023-03-21T00:42:23.968Z,1.63
2023-03-21T00:45:32.913Z,1.40
2023-03-21T00:48:42.531Z,1.93
2023-03-21T00:51:53.297Z,2.03
2023-03-21T00:55:01.545Z,1.80
2023-03-21T00:58:09.786Z,3.40
2023-03-21T01:01:18.174Z,3.23
2023-03-21T01:04:27.352Z,1.43
2023-03-21T01:07:36.860Z,1.40
2023-03-21T01:10:48.907Z,1.90
2023-03-21T01:14:10.738Z,1.70
2023-03-21T01:17:19.426Z,1.77
2023-03-21T01:20:27.883Z,1.43
2023-03-21T01:23:38.010Z,1.80
2023-03-21T01:26:46.265Z,2.03
2023-03-21T01:29:54.504Z,2.10
2023-03-21T01:33:02.766Z,2.93
2023-03-21T01:36:22.675Z,1.50
2023-03-21T01:39:35.309Z,2.17
2023-03-21T01:42:43.571Z,1.67
2023-03-21T01:46:32.247Z,1.73
2023-03-21T01:50:06.326Z,1.60
2023-03-21T01:53:32.719Z,2.37
2023-03-21T01:56:47.038Z,1.70
2023-03-21T01:59:57.433Z,1.60
2023-03-21T02:03:36.058Z,1.93
2023-03-21T02:07:28.876Z,2.10
2023-03-21T02:10:50.524Z,2.37
2023-03-21T02:14:26.616Z,2.33
2023-03-21T02:17:53.406Z,2.83
2023-03-21T02:21:53.604Z,1.97
2023-03-21T02:25:43.281Z,1.47
2023-03-21T02:29:00.813Z,1.57
2023-03-21T02:32:37.081Z,1.60
2023-03-21T02:36:26.692Z,1.80
2023-03-21T02:39:53.699Z,5.03
2023-03-21T02:43:20.807Z,2.07
2023-03-21T02:46:45.355Z,2.90
2023-03-21T02:50:09.339Z,1.83
2023-03-21T02:53:23.165Z,1.90
2023-03-21T02:56:36.887Z,3.80
2023-03-21T02:59:55.465Z,1.70
2023-03-21T03:03:18.032Z,1.53
2023-03-21T03:06:44.168Z,1.30
2023-03-21T03:10:18.361Z,3.43
2023-03-21T03:13:52.722Z,1.17
2023-03-21T03:17:18.129Z,1.53
2023-03-21T03:20:41.051Z,1.40
2023-03-21T03:23:53.985Z,2.47
2023-03-21T03:27:10.768Z,2.67
2023-03-21T03:30:23.721Z,2.20
2023-03-21T03:33:37.118Z,2.40
2023-03-21T03:36:57.175Z,1.40
2023-03-21T03:40:10.716Z,1.60
2023-03-21T03:43:35.001Z,1.30
2023-03-21T03:46:53.199Z,1.70
2023-03-21T03:50:14.492Z,1.47
2023-03-21T03:53:30.887Z,1.40
2023-03-21T03:56:40.870Z,4.53
2023-03-21T03:59:49.764Z,1.50
2023-03-21T04:03:18.755Z,1.30
2023-03-21T04:06:29.084Z,1.13
2023-03-21T04:09:44.685Z,3.43
2023-03-21T04:12:56.840Z,1.90
2023-03-21T04:16:11.615Z,1.87
2023-03-21T04:19:21.627Z,1.47
2023-03-21T04:22:29.830Z,1.87
2023-03-21T04:25:47.649Z,1.57
2023-03-21T04:29:04.066Z,1.03
2023-03-21T04:32:39.611Z,2.40
2023-03-21T04:35:56.285Z,2.40
2023-03-21T04:39:12.380Z,1.20
2023-03-21T04:42:21.409Z,1.40
2023-03-21T04:45:30.993Z,1.47
2023-03-21T04:48:40.325Z,3.07
2023-03-21T04:51:50.261Z,1.20
2023-03-21T04:55:02.071Z,2.13
2023-03-21T04:58:10.645Z,1.60
2023-03-21T05:01:20.778Z,1.20
2023-03-21T05:04:31.115Z,2.27
2023-03-21T05:07:42.456Z,1.90
2023-03-21T05:10:51.191Z,2.10
2023-03-21T05:14:00.141Z,1.20
2023-03-21T05:17:08.382Z,1.77
2023-03-21T05:20:19.070Z,1.20
2023-03-21T05:23:38.199Z,2.80
2023-03-21T05:26:50.802Z,2.50
2023-03-21T05:30:01.546Z,1.53
2023-03-21T05:33:14.875Z,2.23
2023-03-21T05:36:23.418Z,2.00
2023-03-21T05:39:33.747Z,2.57
2023-03-21T05:42:47.586Z,2.30
2023-03-21T05:46:01.401Z,2.10
2023-03-21T05:49:13.552Z,3.03
2023-03-21T05:52:23.456Z,1.40
2023-03-21T05:55:33.371Z,1.33
2023-03-21T05:58:41.984Z,2.30
2023-03-21T06:01:50.714Z,2.30
2023-03-21T06:04:59.257Z,4.17
2023-03-21T06:08:08.113Z,3.00
2023-03-21T06:11:28.401Z,3.67
2023-03-21T06:14:56.510Z,2.00
2023-03-21T06:18:17.893Z,3.23
2023-03-21T06:21:36.593Z,1.40
2023-03-21T06:24:49.181Z,1.97
2023-03-21T06:28:00.854Z,3.03
2023-03-21T06:31:09.976Z,1.60
2023-03-21T06:34:18.253Z,1.57
2023-03-21T06:37:27.468Z,1.70
2023-03-21T06:40:36.550Z,1.40
2023-03-21T06:43:48.441Z,1.90
2023-03-21T06:46:57.367Z,1.30
2023-03-21T06:50:08.246Z,1.27
2023-03-21T06:53:27.221Z,1.40
2023-03-21T06:56:54.284Z,1.43
2023-03-21T07:00:12.969Z,2.90
2023-03-21T07:03:26.839Z,1.57
2023-03-21T07:06:36.131Z,1.27
2023-03-21T07:09:45.045Z,1.60
2023-03-21T07:13:04.538Z,1.70
2023-03-21T07:16:22.288Z,2.13
2023-03-21T07:19:30.882Z,2.07
2023-03-21T07:22:41.446Z,2.20
2023-03-21T07:25:51.136Z,1.60
2023-03-21T07:28:59.623Z,1.53
2023-03-21T07:32:10.403Z,1.50
2023-03-21T07:35:19.321Z,2.70
2023-03-21T07:38:30.956Z,1.10
2023-03-21T07:41:40.306Z,1.33
2023-03-21T07:44:56.172Z,1.93
2023-03-21T07:48:06.589Z,1.53
2023-03-21T07:51:16.289Z,1.30
2023-03-21T07:54:24.445Z,1.43
2023-03-21T07:57:36.604Z,1.50
2023-03-21T08:00:45.034Z,1.40
2023-03-21T08:03:54.675Z,1.73
2023-03-21T08:07:03.086Z,2.33
2023-03-21T08:10:12.876Z,2.53
2023-03-21T08:13:21.300Z,2.40
2023-03-21T08:16:30.105Z,1.90
2023-03-21T08:19:40.196Z,3.20
2023-03-21T08:22:49.399Z,1.60
2023-03-21T08:25:59.456Z,1.50
2023-03-21T08:29:07.689Z,2.87
2023-03-21T08:32:19.027Z,1.50
2023-03-21T08:35:29.238Z,2.77
2023-03-21T08:38:37.506Z,1.83
2023-03-21T08:41:45.773Z,1.83
2023-03-21T08:44:54.067Z,3.77
2023-03-21T08:48:02.511Z,2.17
2023-03-21T08:51:12.040Z,1.73
2023-03-21T08:54:22.056Z,1.93
2023-03-21T08:57:30.461Z,3.47
2023-03-21T09:00:38.828Z,2.00
2023-03-21T09:03:47.064Z,1.87
2023-03-21T09:06:56.756Z,3.23
2023-03-21T09:10:20.181Z,2.53
2023-03-21T09:13:29.449Z,3.13
2023-03-21T09:16:37.729Z,3.20
2023-03-21T09:19:46.523Z,2.30
2023-03-21T09:22:56.864Z,2.07
2023-03-21T09:26:05.520Z,1.60
2023-03-21T09:29:15.936Z,2.23
2023-03-21T09:32:24.152Z,1.80
2023-03-21T09:35:32.320Z,2.43
2023-03-21T09:38:45.015Z,2.43
2023-03-21T09:42:13.115Z,1.83
2023-03-21T09:45:32.405Z,1.90
2023-03-21T09:48:56.631Z,2.00
2023-03-21T09:52:17.637Z,1.80
2023-03-21T09:55:31.820Z,2.20
2023-03-21T09:58:46.519Z,1.73
2023-03-21T10:01:58.435Z,2.57
2023-03-21T10:05:19.562Z,2.40
2023-03-21T10:08:36.468Z,1.50
2023-03-21T10:11:51.423Z,2.20
2023-03-21T10:15:05.356Z,1.80
2023-03-21T10:18:22.525Z,3.90
2023-03-21T10:21:58.571Z,2.03
2023-03-21T10:25:00.857Z,2.00
2023-03-21T10:28:17.714Z,1.80
2023-03-21T10:31:30.663Z,2.30
2023-03-21T10:34:43.796Z,2.30
2023-03-21T10:37:52.112Z,2.40
2023-03-21T10:41:03.554Z,2.07
2023-03-21T10:44:17.432Z,2.90
2023-03-21T10:47:31.323Z,2.17
2023-03-21T10:50:40.151Z,3.30
2023-03-21T10:53:55.839Z,2.23
2023-03-21T10:57:11.925Z,1.93
2023-03-21T11:00:29.262Z,2.90
2023-03-21T11:03:43.678Z,2.20
2023-03-21T11:06:56.930Z,3.07
2023-03-21T11:10:28.121Z,3.57
2023-03-21T11:13:41.336Z,2.90
2023-03-21T11:16:51.793Z,2.30
2023-03-21T11:20:04.935Z,2.53
2023-03-21T11:23:14.925Z,2.33
2023-03-21T11:26:31.085Z,2.63
2023-03-21T11:29:46.594Z,3.47
2023-03-21T11:33:03.386Z,1.90
2023-03-21T11:36:34.890Z,2.57
2023-03-21T11:39:46.337Z,1.53
2023-03-21T11:42:56.491Z,1.40
2023-03-21T11:46:10.061Z,1.60
2023-03-21T11:49:20.055Z,1.60
2023-03-21T11:52:42.166Z,1.67
2023-03-21T11:56:09.678Z,1.57
2023-03-21T11:59:35.826Z,1.67
2023-03-21T12:03:28.901Z,1.47
2023-03-21T12:06:52.594Z,1.73
2023-03-21T12:10:28.347Z,2.47
2023-03-21T12:13:53.921Z,2.70
2023-03-21T12:17:19.288Z,2.13
2023-03-21T12:20:44.735Z,1.67
2023-03-21T12:24:08.788Z,1.50
2023-03-21T12:27:32.184Z,2.73
2023-03-21T12:30:58.462Z,1.40
2023-03-21T12:34:27.782Z,1.60
2023-03-21T12:37:48.717Z,1.93
2023-03-21T12:41:21.504Z,1.40
2023-03-21T12:44:35.799Z,1.90
2023-03-21T12:47:50.584Z,1.60
2023-03-21T12:51:03.552Z,1.27
2023-03-21T12:54:26.214Z,1.20
2023-03-21T12:57:51.176Z,1.30
2023-03-21T13:01:08.581Z,2.10
2023-03-21T13:04:41.490Z,1.03
2023-03-21T13:07:55.914Z,0.90
2023-03-21T13:11:07.200Z,0.80
2023-03-21T13:14:26.269Z,0.80
2023-03-21T13:17:42.801Z,0.83
2023-03-21T13:20:56.324Z,2.87
2023-03-21T13:24:19.295Z,1.07
2023-03-21T13:27:32.598Z,0.87
2023-03-21T13:30:42.675Z,0.73
2023-03-21T13:33:54.677Z,0.80
2023-03-21T13:37:04.013Z,0.77
2023-03-21T13:40:26.047Z,1.47
2023-03-21T13:43:45.401Z,1.27
2023-03-21T13:47:02.049Z,0.70
2023-03-21T13:50:36.450Z,0.80
2023-03-21T13:54:01.953Z,0.80
2023-03-21T13:57:38.192Z,2.10
2023-03-21T14:01:11.848Z,0.90
2023-03-21T14:04:32.057Z,0.43
2023-03-21T14:08:06.005Z,0.67
2023-03-21T14:11:21.229Z,0.77
2023-03-21T14:14:38.782Z,0.53
2023-03-21T14:17:57.257Z,0.80
2023-03-21T14:21:23.371Z,0.90
2023-03-21T14:24:32.247Z,0.70
2023-03-21T14:27:46.724Z,0.53
2023-03-21T14:31:03.043Z,0.50
2023-03-21T14:34:12.648Z,1.00
2023-03-21T14:37:32.740Z,1.00
2023-03-21T14:40:48.917Z,0.50
2023-03-21T14:44:25.492Z,1.00
2023-03-21T14:47:36.691Z,0.20
2023-03-21T14:50:50.850Z,1.63
2023-03-21T14:54:01.481Z,0.20
2023-03-21T14:57:15.180Z,0.40
2023-03-21T15:00:28.066Z,0.87
2023-03-21T15:03:37.516Z,0.30
2023-03-21T15:06:57.927Z,0.30
2023-03-21T15:10:16.493Z,1.20
2023-03-21T15:13:30.066Z,0.70
2023-03-21T15:16:39.261Z,0.77
2023-03-21T15:19:47.762Z,0.50
2023-03-21T15:23:02.626Z,1.57
2023-03-21T15:26:18.239Z,0.40
2023-03-21T15:29:27.424Z,1.37
2023-03-21T15:32:38.340Z,1.80
2023-03-21T15:35:54.051Z,0.60
2023-03-21T15:39:06.265Z,0.87
2023-03-21T15:42:38.128Z,1.33
2023-03-21T15:45:55.996Z,1.03
2023-03-21T15:49:22.790Z,0.87
2023-03-21T15:52:34.051Z,1.43
2023-03-21T15:55:49.823Z,0.80
2023-03-21T15:59:03.565Z,0.60
2023-03-21T16:02:21.949Z,5.93
2023-03-21T16:05:33.070Z,0.80
2023-03-21T16:08:48.001Z,2.30
2023-03-21T16:11:58.722Z,0.90
2023-03-21T16:15:10.672Z,1.03
2023-03-21T16:18:21.443Z,1.20
2023-03-21T16:21:34.200Z,0.50
2023-03-21T16:24:42.527Z,0.63
2023-03-21T16:27:51.809Z,2.97
2023-03-21T16:31:01.530Z,1.03
2023-03-21T16:34:10.694Z,3.57
2023-03-21T16:37:19.900Z,1.47
2023-03-21T16:40:34.732Z,0.97
2023-03-21T16:43:45.394Z,1.10
2023-03-21T16:46:54.929Z,0.90
2023-03-21T16:50:03.075Z,1.07
2023-03-21T16:53:11.561Z,11.00
2023-03-21T16:56:23.887Z,3.13
2023-03-21T16:59:32.668Z,1.20
2023-03-21T17:02:42.456Z,1.30
2023-03-21T17:05:50.770Z,3.53
2023-03-21T17:09:00.578Z,1.27
2023-03-21T17:12:13.664Z,2.93
2023-03-21T17:15:22.965Z,2.13
2023-03-21T17:18:32.608Z,1.43
2023-03-21T17:21:40.882Z,1.47
2023-03-21T17:24:50.766Z,1.63
2023-03-21T17:27:58.929Z,3.43
2023-03-21T17:31:14.396Z,1.40
2023-03-21T17:34:24.139Z,1.73
2023-03-21T17:37:32.396Z,1.57
2023-03-21T17:40:41.192Z,1.80
2023-03-21T17:43:51.597Z,1.70
2023-03-21T17:46:59.780Z,2.63
2023-03-21T17:50:22.040Z,4.00
2023-03-21T17:53:30.291Z,2.60
2023-03-21T17:56:40.033Z,2.73
2023-03-21T17:59:48.568Z,2.40
2023-03-21T18:02:57.768Z,3.57
2023-03-21T18:06:13.776Z,2.87
2023-03-21T18:09:22.006Z,2.90
2023-03-21T18:12:30.210Z,4.37
2023-03-21T18:15:44.147Z,9.20
2023-03-21T18:18:56.693Z,6.20
2023-03-21T18:22:07.557Z,8.93
2023-03-21T18:25:18.613Z,7.10
2023-03-21T18:28:27.356Z,5.40
2023-03-21T18:31:36.987Z,4.70
2023-03-21T18:34:45.293Z,7.50
2023-03-21T18:37:54.890Z,5.27
2023-03-21T18:41:03.712Z,4.70
2023-03-21T18:44:17.328Z,4.00
2023-03-21T18:47:29.257Z,2.13
2023-03-21T18:50:38.250Z,3.33
2023-03-21T18:53:48.178Z,4.23
2023-03-21T18:57:35.151Z,4.70
2023-03-21T19:00:27.932Z,2.37
2023-03-21T19:03:37.794Z,2.70
2023-03-21T19:06:47.154Z,3.23
2023-03-21T19:10:16.334Z,3.73
2023-03-21T19:13:25.727Z,4.43
2023-03-21T19:16:49.656Z,4.87
2023-03-21T19:20:02.169Z,5.00
2023-03-21T19:23:10.968Z,6.90
2023-03-21T19:26:20.612Z,7.40
2023-03-21T19:29:29.106Z,5.20
2023-03-21T19:32:37.694Z,4.87
2023-03-21T19:35:46.718Z,5.83
2023-03-21T19:38:55.344Z,5.90
2023-03-21T19:42:16.027Z,10.27
2023-03-21T19:45:25.851Z,8.77
2023-03-21T19:48:34.037Z,7.70
2023-03-21T19:51:42.481Z,8.33
2023-03-21T19:54:50.608Z,5.20
2023-03-21T19:58:00.404Z,5.93
2023-03-21T20:01:08.725Z,8.50
2023-03-21T20:04:17.926Z,9.33
2023-03-21T20:07:26.166Z,10.35
2023-03-21T20:10:34.426Z,9.80
2023-03-21T20:13:45.884Z,12.53
2023-03-21T20:16:56.946Z,5.53
2023-03-21T20:20:13.821Z,7.73
2023-03-21T20:23:22.489Z,8.87
2023-03-21T20:26:31.431Z,7.53
2023-03-21T20:33:09.610Z,5.90
2023-03-21T20:36:40.003Z,4.63
2023-03-21T20:39:46.531Z,4.03
2023-03-21T20:42:56.358Z,3.03
2023-03-21T20:46:09.378Z,4.73
2023-03-21T20:49:19.681Z,6.37
2023-03-21T20:52:57.478Z,3.27
2023-03-21T20:56:02.167Z,2.20
2023-03-21T20:59:20.942Z,2.73
2023-03-21T21:02:34.610Z,1.67
2023-03-21T21:05:46.441Z,3.00
2023-03-21T21:08:55.743Z,2.43
2023-03-21T21:12:07.445Z,1.80
2023-03-21T21:15:17.643Z,5.17
2023-03-21T21:18:28.544Z,5.60
2023-03-21T21:21:37.483Z,3.60
2023-03-21T21:24:46.399Z,3.00
2023-03-21T21:27:54.820Z,5.43
2023-03-21T21:31:12.684Z,8.97
2023-03-21T21:34:22.287Z,8.47
2023-03-21T21:37:33.870Z,9.20
2023-03-21T21:40:42.959Z,6.57
2023-03-21T21:43:52.182Z,3.60
2023-03-21T21:47:04.248Z,4.27
2023-03-21T21:50:15.040Z,4.30
2023-03-21T21:53:23.390Z,3.63
2023-03-21T21:56:33.444Z,6.17
2023-03-21T21:59:41.874Z,4.90
2023-03-21T22:02:50.184Z,6.37
2023-03-21T22:06:04.568Z,5.57
2023-03-21T22:09:13.937Z,4.13
2023-03-21T22:12:22.557Z,6.87
2023-03-21T22:15:30.895Z,4.20
2023-03-21T22:18:39.306Z,5.13
2023-03-21T22:21:49.354Z,3.77
2023-03-21T22:24:57.558Z,3.53
2023-03-21T22:28:06.435Z,4.23
2023-03-21T22:31:18.221Z,3.90
2023-03-21T22:34:28.392Z,3.07
2023-03-21T22:37:40.819Z,4.63
2023-03-21T22:40:55.369Z,3.20
2023-03-21T22:44:03.617Z,4.20
2023-03-21T22:47:12.857Z,4.67
2023-03-21T22:50:21.424Z,3.63
2023-03-21T22:53:32.022Z,3.17
2023-03-21T22:56:40.323Z,4.33
2023-03-21T22:59:49.498Z,4.93
2023-03-21T23:02:59.623Z,3.53
2023-03-21T23:06:08.831Z,3.83
2023-03-21T23:09:19.463Z,3.83
2023-03-21T23:12:27.654Z,3.23
2023-03-21T23:15:38.521Z,5.10
2023-03-21T23:18:46.840Z,5.50
2023-03-21T23:21:55.704Z,4.73
2023-03-21T23:25:06.759Z,8.53
2023-03-21T23:28:15.422Z,6.10
2023-03-21T23:31:27.209Z,5.10
2023-03-21T23:34:36.682Z,5.30
2023-03-21T23:37:52.294Z,4.37
2023-03-21T23:41:04.172Z,7.13
2023-03-21T23:44:13.071Z,6.03
2023-03-21T23:47:21.827Z,5.43
2023-03-21T23:50:30.021Z,5.07
2023-03-21T23:53:39.264Z,4.73
2023-03-21T23:56:49.165Z,6.53
2023-03-21T23:59:58.680Z,5.63
